Airfield :
LOGIN :

Register | Disclaimer

   EN    FR    IT 

 










Legend :    VFR   Marginal VFR   IFR   Intensive IFR   Very Intensive IFR
Visi :
Ceiling :
>= 8 km
>= 3000ft
5 to 8 km
1000 to 3000 ft
1500m to 5 km
500 to 1000 ft
800 to 1500m
200 to 500 ft
< 800m
< 200 ft
Symbols :   Thunderstorms  Fog  Heavy snow  Heavy precipitations  Wind > 20 kt
SIGMETs :     Misc.  Thunderstorms  Icing  Turbulence  Mountain Waves  Volcanic Ashes







- Airport Elevation : 1036 ft
- IATA code : ERF


EDDE - Erfurt

CURRENT METAR :
  • 241250Z 36005KT 320V030 8000 OVC012 07/05 Q1023 BECMG SCT015

EXPIRED METARs :
  • 241220Z 36006KT 8000 OVC012 07/05 Q1024 BECMG SCT015
  • 241150Z 01005KT 8000 OVC011 07/05 Q1024 BECMG SCT015
  • 241120Z 04003KT 360V060 8000 OVC011 07/05 Q1024 BECMG SCT015
  • 241050Z 03004KT 330V080 8000 BKN010 07/04 Q1024 BECMG SCT015
  • 241020Z 04004KT 350V100 8000 OVC009 07/04 Q1025 BECMG BKN012

TAF TAF EDDE
Valid from the 24 at 12:00 until the 25 at 12:00 UTC


241100Z 2412/2512 03004KT 9999 BKN009
BECMG 2412/2416 28006KT BKN015
BECMG 2502/2505 27015G25KT
TEMPO 2505/2512 28020G30KT 3500 SHRAGS BKN012CB
No reported NOTAMs for that airfield.



MET'MAP, your aeronautical weather chart ! - Copyright ORBIFLY December 2007 - Disclaimer

ORBIFLY MET'MAP TEAM :

Programming & Development : Alexandra Zaïnal
Concept & Development : Baudouin d'Aumeries
Co-Development & Prog : Marc-Olivier Méhu
Technical & hardware support : Manuel Goepfert

Contact : metmap@orbifly.com




SOURCES & CREDITS :

   NOAA